createdAt,value
2023-04-04T00:02:10.764Z,1.59
2023-04-04T00:04:58.802Z,1.41
2023-04-04T00:07:49.079Z,1.23
2023-04-04T00:10:36.142Z,1.27
2023-04-04T00:13:23.370Z,1.29
2023-04-04T00:16:10.470Z,1.35
2023-04-04T00:18:57.594Z,1.35
2023-04-04T00:21:47.928Z,1.33
2023-04-04T00:24:35.702Z,1.18
2023-04-04T00:27:22.895Z,1.18
2023-04-04T00:30:10.653Z,1.06
2023-04-04T00:32:58.406Z,1.29
2023-04-04T00:35:45.594Z,1.21
2023-04-04T00:38:32.732Z,1.16
2023-04-04T00:41:20.015Z,1.28
2023-04-04T00:44:07.125Z,1.22
2023-04-04T00:46:54.314Z,1.19
2023-04-04T00:49:41.432Z,1.13
2023-04-04T00:52:28.638Z,1.18
2023-04-04T00:55:16.675Z,1.19
2023-04-04T00:58:03.837Z,1.28
2023-04-04T01:00:51.128Z,1.20
2023-04-04T01:03:39.825Z,1.10
2023-04-04T01:06:28.107Z,1.14
2023-04-04T01:09:15.843Z,1.11
2023-04-04T01:12:03.245Z,1.13
2023-04-04T01:14:50.484Z,1.31
2023-04-04T01:17:37.849Z,1.17
2023-04-04T01:20:31.486Z,1.19
2023-04-04T01:23:19.724Z,1.26
2023-04-04T01:26:08.131Z,1.13
2023-04-04T01:28:56.774Z,1.31
2023-04-04T01:31:49.952Z,1.16
2023-04-04T01:34:50.617Z,0.94
2023-04-04T01:37:49.881Z,1.00
2023-04-04T01:40:38.878Z,1.10
2023-04-04T01:43:26.304Z,1.09
2023-04-04T01:46:13.683Z,1.05
2023-04-04T01:49:00.862Z,1.07
2023-04-04T01:51:49.771Z,1.04
2023-04-04T01:54:37.315Z,1.00
2023-04-04T01:57:24.409Z,0.97
2023-04-04T02:00:12.379Z,0.94
2023-04-04T02:03:00.482Z,0.95
2023-04-04T02:05:47.862Z,1.00
2023-04-04T02:08:35.130Z,1.17
2023-04-04T02:11:23.285Z,1.01
2023-04-04T02:14:10.351Z,0.92
2023-04-04T02:16:57.510Z,0.88
2023-04-04T02:19:44.776Z,0.89
2023-04-04T02:22:31.862Z,0.98
2023-04-04T02:25:18.996Z,0.85
2023-04-04T02:28:06.246Z,0.70
2023-04-04T02:30:53.335Z,0.71
2023-04-04T02:33:40.407Z,0.87
2023-04-04T02:36:27.823Z,0.92
2023-04-04T02:39:15.116Z,0.80
2023-04-04T02:42:02.228Z,0.85
2023-04-04T02:44:49.266Z,0.95
2023-04-04T02:47:36.294Z,0.94
2023-04-04T02:50:23.480Z,0.82
2023-04-04T02:53:10.556Z,0.72
2023-04-04T02:55:57.688Z,0.70
2023-04-04T02:58:44.857Z,0.72
2023-04-04T03:01:32.548Z,0.58
2023-04-04T03:04:19.761Z,0.66
2023-04-04T03:07:06.855Z,0.44
2023-04-04T03:09:53.891Z,0.42
2023-04-04T03:12:41.303Z,0.57
2023-04-04T03:15:28.452Z,0.47
2023-04-04T03:18:15.571Z,0.36
2023-04-04T03:21:02.902Z,0.39
2023-04-04T03:23:49.995Z,0.26
2023-04-04T03:26:37.611Z,0.33
2023-04-04T03:29:24.682Z,0.17
2023-04-04T03:32:12.012Z,0.20
2023-04-04T03:34:59.163Z,0.04
2023-04-04T03:37:46.204Z,0.04
2023-04-04T03:40:33.994Z,-0.09
2023-04-04T03:43:21.712Z,-0.19
2023-04-04T03:46:08.915Z,-0.16
2023-04-04T03:48:56.659Z,-0.40
2023-04-04T03:51:43.747Z,-0.29
2023-04-04T03:54:31.169Z,-0.46
2023-04-04T03:57:18.399Z,-0.46
2023-04-04T04:00:06.121Z,-0.51
2023-04-04T04:02:53.625Z,-0.63
2023-04-04T04:05:41.366Z,-0.64
2023-04-04T04:08:28.507Z,-0.66
2023-04-04T04:11:15.855Z,-0.77
2023-04-04T04:14:03.892Z,-0.73
2023-04-04T04:16:50.964Z,-0.65
2023-04-04T04:19:38.056Z,-0.79
2023-04-04T04:22:25.105Z,-0.80
2023-04-04T04:25:12.179Z,-0.83
2023-04-04T04:27:59.310Z,-0.84
2023-04-04T04:30:46.629Z,-0.72
2023-04-04T04:33:33.934Z,-0.76
2023-04-04T04:36:21.061Z,-0.80
2023-04-04T04:39:08.283Z,-0.82
2023-04-04T04:41:55.314Z,-0.90
2023-04-04T04:44:42.386Z,-0.92
2023-04-04T04:47:32.023Z,-0.67
2023-04-04T04:50:19.215Z,-0.86
2023-04-04T04:53:06.270Z,-1.00
2023-04-04T04:55:53.564Z,-0.73
2023-04-04T04:58:40.814Z,-0.87
2023-04-04T05:01:28.103Z,-0.95
2023-04-04T05:04:17.732Z,-0.99
2023-04-04T05:07:04.950Z,-0.98
2023-04-04T05:09:52.304Z,-1.00
2023-04-04T05:12:44.898Z,-0.75
2023-04-04T05:15:32.448Z,-0.81
2023-04-04T05:18:19.551Z,-0.79
2023-04-04T05:21:06.688Z,-0.68
2023-04-04T05:23:53.778Z,-0.74
2023-04-04T05:26:40.860Z,-0.71
2023-04-04T05:29:29.315Z,-0.53
2023-04-04T05:32:16.383Z,-0.27
2023-04-04T05:35:03.834Z,-0.11
2023-04-04T05:37:50.963Z,-0.25
2023-04-04T05:40:38.241Z,-0.17
2023-04-04T05:43:25.630Z,0.11
2023-04-04T05:46:12.765Z,0.24
2023-04-04T05:48:59.864Z,0.19
2023-04-04T05:51:47.381Z,0.09
2023-04-04T05:54:34.381Z,0.11
2023-04-04T05:57:22.423Z,0.44
2023-04-04T06:00:11.154Z,0.57
2023-04-04T06:02:58.978Z,0.57
2023-04-04T06:05:51.807Z,0.60
2023-04-04T06:08:52.506Z,0.60
2023-04-04T06:11:41.059Z,0.74
2023-04-04T06:14:28.146Z,0.71
2023-04-04T06:17:15.660Z,0.82
2023-04-04T06:20:04.633Z,0.99
2023-04-04T06:22:51.715Z,1.13
2023-04-04T06:25:38.910Z,0.96
2023-04-04T06:28:26.600Z,1.06
2023-04-04T06:31:13.729Z,1.25
2023-04-04T06:34:01.682Z,1.34
2023-04-04T06:36:48.720Z,1.44
2023-04-04T06:39:36.010Z,1.44
2023-04-04T06:42:23.125Z,1.40
2023-04-04T06:45:10.536Z,1.42
2023-04-04T06:47:57.680Z,1.46
2023-04-04T06:50:44.782Z,1.39
2023-04-04T06:53:32.408Z,1.55
2023-04-04T06:56:19.476Z,1.62
2023-04-04T06:59:06.632Z,1.77
2023-04-04T07:01:53.766Z,1.87
2023-04-04T07:04:42.046Z,1.80
2023-04-04T07:07:30.153Z,1.90
2023-04-04T07:10:17.301Z,1.87
2023-04-04T07:13:04.474Z,1.93
2023-04-04T07:15:51.954Z,1.95
2023-04-04T07:18:38.979Z,2.00
2023-04-04T07:21:26.101Z,2.11
2023-04-04T07:24:13.231Z,2.69
2023-04-04T07:27:00.272Z,3.46
2023-04-04T07:29:48.476Z,3.67
2023-04-04T07:32:36.248Z,3.50
2023-04-04T07:35:23.316Z,3.41
2023-04-04T07:38:10.505Z,3.11
2023-04-04T07:40:57.580Z,2.89
2023-04-04T07:43:44.601Z,3.10
2023-04-04T07:46:31.729Z,3.09
2023-04-04T07:49:18.840Z,3.75
2023-04-04T07:52:06.571Z,4.27
2023-04-04T07:54:54.222Z,4.50
2023-04-04T07:57:41.614Z,4.21
2023-04-04T08:00:28.758Z,4.17
2023-04-04T08:03:17.793Z,3.84
2023-04-04T08:06:04.931Z,3.57
2023-04-04T08:08:52.574Z,3.68
2023-04-04T08:11:39.624Z,3.50
2023-04-04T08:14:27.162Z,3.76
2023-04-04T08:17:18.966Z,3.33
2023-04-04T08:20:06.585Z,3.13
2023-04-04T08:22:53.792Z,2.87
2023-04-04T08:25:40.811Z,2.80
2023-04-04T08:28:27.936Z,2.96
2023-04-04T08:31:15.072Z,2.83
2023-04-04T08:34:07.869Z,2.88
2023-04-04T08:36:54.870Z,2.56
2023-04-04T08:39:41.956Z,2.57
2023-04-04T08:42:32.587Z,2.49
2023-04-04T08:45:21.568Z,2.56
2023-04-04T08:48:11.685Z,3.56
2023-04-04T08:51:01.149Z,4.01
2023-04-04T08:53:48.390Z,4.06
2023-04-04T08:56:36.084Z,3.66
2023-04-04T08:59:23.256Z,3.72
2023-04-04T09:02:10.817Z,3.52
2023-04-04T09:05:06.103Z,3.48
2023-04-04T09:07:55.074Z,4.20
2023-04-04T09:10:44.279Z,4.90
2023-04-04T09:13:31.533Z,5.77
2023-04-04T09:16:18.667Z,6.58
2023-04-04T09:19:05.815Z,6.79
2023-04-04T09:21:52.846Z,7.07
2023-04-04T09:24:41.672Z,6.52
2023-04-04T09:27:28.769Z,5.81
2023-04-04T09:30:16.017Z,5.52
2023-04-04T09:33:05.835Z,5.90
2023-04-04T09:35:59.167Z,6.18
2023-04-04T09:38:48.833Z,6.34
2023-04-04T09:41:39.771Z,6.47
2023-04-04T09:44:33.340Z,6.11
2023-04-04T09:47:30.909Z,6.25
2023-04-04T09:50:24.005Z,6.74
2023-04-04T09:53:17.209Z,6.99
2023-04-04T09:56:04.884Z,7.72
2023-04-04T09:59:03.098Z,7.49
2023-04-04T10:01:55.211Z,7.16
2023-04-04T10:04:44.588Z,6.84
2023-04-04T10:07:33.779Z,7.21
2023-04-04T10:10:21.232Z,6.84
2023-04-04T10:13:11.636Z,6.53
2023-04-04T10:16:00.830Z,6.35
2023-04-04T10:18:48.492Z,6.01
2023-04-04T10:21:36.098Z,5.39
2023-04-04T10:24:23.308Z,5.78
2023-04-04T10:27:10.427Z,5.80
2023-04-04T10:29:57.688Z,6.35
2023-04-04T10:33:01.539Z,7.15
2023-04-04T10:35:54.213Z,7.82
2023-04-04T10:38:44.999Z,8.53
2023-04-04T10:41:33.099Z,7.97
2023-04-04T10:44:30.196Z,8.04
2023-04-04T10:47:26.640Z,7.93
2023-04-04T10:50:15.458Z,8.12
2023-04-04T10:53:06.773Z,7.19
2023-04-04T10:55:54.274Z,7.11
2023-04-04T10:58:41.844Z,6.45
2023-04-04T11:01:54.902Z,6.76
2023-04-04T11:04:48.052Z,5.79
2023-04-04T11:07:37.060Z,5.63
2023-04-04T11:10:26.947Z,6.50
2023-04-04T11:13:24.918Z,7.29
2023-04-04T11:16:15.818Z,8.30
2023-04-04T11:19:03.267Z,8.66
2023-04-04T11:21:51.159Z,8.97
2023-04-04T11:24:44.751Z,8.71
2023-04-04T11:27:31.917Z,8.84
2023-04-04T11:30:19.445Z,7.75
2023-04-04T11:33:08.193Z,8.13
2023-04-04T11:36:07.706Z,8.11
2023-04-04T11:38:58.546Z,8.49
2023-04-04T11:42:04.164Z,8.44
2023-04-04T11:44:51.177Z,8.54
2023-04-04T11:47:40.072Z,8.51
2023-04-04T11:50:35.004Z,8.17
2023-04-04T11:53:22.376Z,8.09
2023-04-04T11:56:15.754Z,8.07
2023-04-04T11:59:11.574Z,7.63
2023-04-04T12:02:00.582Z,8.25
2023-04-04T12:04:48.419Z,8.51
2023-04-04T12:07:35.852Z,8.57
2023-04-04T12:10:23.344Z,7.93
2023-04-04T12:13:10.859Z,7.98
2023-04-04T12:15:58.473Z,8.24
2023-04-04T12:18:46.529Z,8.43
2023-04-04T12:21:33.856Z,6.93
2023-04-04T12:24:21.366Z,7.35
2023-04-04T12:27:08.739Z,7.88
2023-04-04T12:29:57.301Z,8.26
2023-04-04T12:32:47.489Z,8.88
2023-04-04T12:35:34.696Z,9.52
2023-04-04T12:38:21.999Z,9.69
2023-04-04T12:41:17.631Z,9.76
2023-04-04T12:44:07.602Z,9.59
2023-04-04T12:46:57.971Z,10.33
2023-04-04T12:49:50.549Z,10.90
2023-04-04T12:52:39.903Z,10.43
2023-04-04T12:55:31.684Z,10.20
2023-04-04T12:58:22.694Z,9.57
2023-04-04T13:01:10.607Z,10.33
2023-04-04T13:04:01.517Z,9.06
2023-04-04T13:06:49.046Z,9.32
2023-04-04T13:09:37.105Z,9.52
2023-04-04T13:12:25.163Z,9.44
2023-04-04T13:15:14.126Z,9.02
2023-04-04T13:18:24.828Z,8.72
2023-04-04T13:21:12.665Z,8.55
2023-04-04T13:24:02.368Z,8.86
2023-04-04T13:26:49.439Z,9.55
2023-04-04T13:29:36.528Z,9.01
2023-04-04T13:32:23.872Z,9.82
2023-04-04T13:35:11.101Z,9.48
2023-04-04T13:37:58.164Z,9.67
2023-04-04T13:40:45.854Z,9.78
2023-04-04T13:43:32.975Z,9.55
2023-04-04T13:46:21.833Z,9.57
2023-04-04T13:49:11.037Z,10.12
2023-04-04T13:51:58.121Z,10.23
2023-04-04T13:54:45.180Z,10.78
2023-04-04T13:57:32.244Z,11.11
2023-04-04T14:00:19.659Z,10.58
2023-04-04T14:03:07.039Z,10.64
2023-04-04T14:05:54.147Z,10.32
2023-04-04T14:08:41.282Z,10.99
2023-04-04T14:11:31.422Z,11.14
2023-04-04T14:14:18.514Z,11.48
2023-04-04T14:17:05.753Z,11.83
2023-04-04T14:19:52.914Z,11.87
2023-04-04T14:22:39.949Z,11.45
2023-04-04T14:25:27.036Z,11.01
2023-04-04T14:28:14.071Z,10.90
2023-04-04T14:31:01.297Z,10.21
2023-04-04T14:33:48.418Z,10.40
2023-04-04T14:36:35.652Z,10.93
2023-04-04T14:39:22.862Z,10.85
2023-04-04T14:42:10.197Z,11.13
2023-04-04T14:44:57.339Z,10.91
2023-04-04T14:47:44.404Z,10.63
2023-04-04T14:50:31.491Z,10.67
2023-04-04T14:53:18.590Z,10.15
2023-04-04T14:56:05.842Z,9.91
2023-04-04T14:58:53.153Z,9.82
2023-04-04T15:01:40.258Z,9.54
2023-04-04T15:04:27.510Z,9.78
2023-04-04T15:07:14.722Z,9.43
2023-04-04T15:10:01.979Z,10.11
2023-04-04T15:12:49.044Z,10.06
2023-04-04T15:15:36.115Z,9.01
2023-04-04T15:18:23.283Z,9.09
2023-04-04T15:21:11.572Z,8.77
2023-04-04T15:23:58.680Z,8.46
2023-04-04T15:26:46.426Z,8.80
2023-04-04T15:29:33.799Z,8.15
2023-04-04T15:32:20.925Z,8.07
2023-04-04T15:35:16.964Z,8.55
2023-04-04T15:38:04.036Z,8.43
2023-04-04T15:40:51.429Z,8.13
2023-04-04T15:43:38.700Z,8.12
2023-04-04T15:46:25.966Z,7.88
2023-04-04T15:49:13.024Z,7.78
2023-04-04T15:52:00.100Z,7.87
2023-04-04T15:54:47.196Z,7.84
2023-04-04T15:57:34.337Z,7.79
2023-04-04T16:00:21.706Z,7.56
2023-04-04T16:03:08.845Z,7.48
2023-04-04T16:05:56.667Z,7.68
2023-04-04T16:08:44.956Z,7.71
2023-04-04T16:11:32.815Z,8.00
2023-04-04T16:14:19.852Z,7.94
2023-04-04T16:17:06.888Z,7.48
2023-04-04T16:19:54.271Z,7.07
2023-04-04T16:22:41.361Z,6.69
2023-04-04T16:25:28.612Z,6.60
2023-04-04T16:28:15.735Z,6.56
2023-04-04T16:31:03.051Z,6.67
2023-04-04T16:33:50.126Z,6.57
2023-04-04T16:36:37.261Z,6.39
2023-04-04T16:39:24.465Z,6.25
2023-04-04T16:42:11.522Z,5.91
2023-04-04T16:44:58.656Z,5.88
2023-04-04T16:47:45.988Z,5.61
2023-04-04T16:50:33.073Z,5.34
2023-04-04T16:53:20.094Z,5.45
2023-04-04T16:56:07.252Z,5.33
2023-04-04T16:58:54.637Z,5.14
2023-04-04T17:01:41.824Z,5.36
2023-04-04T17:04:29.113Z,4.99
2023-04-04T17:07:16.517Z,4.98
2023-04-04T17:10:03.880Z,4.96
2023-04-04T17:12:51.579Z,4.84
2023-04-04T17:15:38.659Z,4.65
2023-04-04T17:18:25.951Z,4.57
2023-04-04T17:21:12.963Z,4.48
2023-04-04T17:24:00.141Z,4.50
2023-04-04T17:26:48.191Z,4.48
2023-04-04T17:29:36.254Z,4.38
2023-04-04T17:32:23.272Z,4.26
2023-04-04T17:35:10.768Z,4.11
2023-04-04T17:40:41.369Z,4.04
2023-04-04T17:43:30.178Z,3.99
2023-04-04T17:46:17.967Z,4.11
2023-04-04T17:49:05.211Z,3.79
2023-04-04T17:51:54.240Z,3.50
2023-04-04T17:54:41.623Z,3.30
2023-04-04T17:57:28.830Z,3.20
2023-04-04T18:00:16.524Z,3.11
2023-04-04T18:03:04.839Z,3.01
2023-04-04T18:05:54.085Z,2.73
2023-04-04T18:08:43.134Z,2.75
2023-04-04T18:11:30.344Z,2.74
2023-04-04T18:14:18.200Z,2.74
2023-04-04T18:17:05.518Z,2.83
2023-04-04T18:19:55.706Z,2.53
2023-04-04T18:22:43.104Z,2.66
2023-04-04T18:25:33.484Z,2.16
2023-04-04T18:28:20.532Z,2.15
2023-04-04T18:31:08.406Z,2.06
2023-04-04T18:33:56.254Z,1.90
2023-04-04T18:36:44.217Z,1.89
2023-04-04T18:39:32.699Z,1.74
2023-04-04T18:42:20.558Z,1.61
2023-04-04T18:45:08.470Z,1.61
2023-04-04T18:47:56.340Z,1.60
2023-04-04T18:50:44.181Z,1.52
2023-04-04T18:53:31.459Z,1.47
2023-04-04T18:56:19.188Z,1.34
2023-04-04T18:59:06.748Z,1.37
2023-04-04T19:01:54.608Z,1.22
2023-04-04T19:04:44.334Z,1.25
2023-04-04T19:07:34.731Z,1.41
2023-04-04T19:10:23.127Z,0.99
2023-04-04T19:13:10.860Z,0.66
2023-04-04T19:15:58.602Z,0.63
2023-04-04T19:18:46.708Z,0.57
2023-04-04T19:21:34.533Z,0.70
2023-04-04T19:24:23.209Z,0.48
2023-04-04T19:27:10.923Z,0.50
2023-04-04T19:29:58.691Z,0.40
2023-04-04T19:32:47.970Z,0.32
2023-04-04T19:36:09.157Z,0.30
2023-04-04T19:38:57.706Z,0.11
2023-04-04T19:41:45.890Z,-0.09
2023-04-04T19:44:33.628Z,0.05
2023-04-04T19:47:22.248Z,0.03
2023-04-04T19:50:29.705Z,-0.12
2023-04-04T19:56:26.654Z,-0.13
2023-04-04T19:59:59.792Z,-0.33
2023-04-04T20:02:53.606Z,-0.48
2023-04-04T20:05:47.978Z,-0.49
2023-04-04T20:08:37.996Z,-0.56
2023-04-04T20:11:33.391Z,-0.52
2023-04-04T20:14:24.077Z,-0.61
2023-04-04T20:17:11.463Z,-0.74
2023-04-04T20:19:58.521Z,-0.79
2023-04-04T20:22:45.912Z,-0.77
2023-04-04T20:25:42.948Z,-0.85
2023-04-04T20:28:33.418Z,-0.93
2023-04-04T20:31:21.287Z,-1.06
2023-04-04T20:34:27.828Z,-1.14
2023-04-04T20:37:22.320Z,-1.03
2023-04-04T20:40:13.336Z,-1.29
2023-04-04T20:43:00.517Z,-1.32
2023-04-04T20:45:50.484Z,-1.30
2023-04-04T20:48:39.719Z,-1.29
2023-04-04T20:51:33.358Z,-1.38
2023-04-04T20:54:20.441Z,-1.29
2023-04-04T20:57:07.745Z,-1.16
2023-04-04T20:59:54.837Z,-1.33
2023-04-04T21:02:42.534Z,-1.38
2023-04-04T21:05:35.327Z,-1.13
2023-04-04T21:08:22.394Z,-1.34
2023-04-04T21:11:11.620Z,-1.32
2023-04-04T21:13:58.691Z,-1.49
2023-04-04T21:16:45.933Z,-1.25
2023-04-04T21:19:32.945Z,-1.29
2023-04-04T21:22:20.097Z,-1.41
2023-04-04T21:25:18.899Z,-1.47
2023-04-04T21:28:06.783Z,-1.59
2023-04-04T21:30:53.891Z,-1.46
2023-04-04T21:33:48.486Z,-1.30
2023-04-04T21:36:35.760Z,-1.42
2023-04-04T21:39:26.472Z,-1.44
2023-04-04T21:42:13.818Z,-1.53
2023-04-04T21:45:00.907Z,-1.40
2023-04-04T21:47:48.109Z,-1.27
2023-04-04T21:50:35.244Z,-1.31
2023-04-04T21:53:22.490Z,-1.44
2023-04-04T21:56:09.713Z,-1.61
2023-04-04T21:58:57.848Z,-1.59
2023-04-04T22:01:45.503Z,-1.67
2023-04-04T22:04:32.556Z,-1.65
2023-04-04T22:07:19.580Z,-1.61
2023-04-04T22:10:09.470Z,-1.47
2023-04-04T22:13:00.190Z,-1.60
2023-04-04T22:15:47.483Z,-1.80
2023-04-04T22:18:34.854Z,-1.90
2023-04-04T22:21:28.173Z,-1.90
2023-04-04T22:24:15.980Z,-1.94
2023-04-04T22:27:03.986Z,-1.98
2023-04-04T22:29:51.230Z,-1.84
2023-04-04T22:32:39.369Z,-1.64
2023-04-04T22:35:28.127Z,-1.37
2023-04-04T22:38:15.093Z,-1.36
2023-04-04T22:41:02.121Z,-1.31
2023-04-04T22:43:49.088Z,-1.48
2023-04-04T22:46:36.975Z,-1.46
2023-04-04T22:49:24.001Z,-1.51
2023-04-04T22:52:13.017Z,-1.69
2023-04-04T22:55:00.261Z,-1.51
2023-04-04T22:57:47.325Z,-1.63
2023-04-04T23:03:33.505Z,-1.65
2023-04-04T23:06:20.836Z,-1.80
2023-04-04T23:09:08.455Z,-2.01
2023-04-04T23:11:56.197Z,-1.92
2023-04-04T23:14:45.100Z,-1.84
2023-04-04T23:17:33.091Z,-2.08
2023-04-04T23:20:20.231Z,-2.16
2023-04-04T23:23:07.238Z,-2.07
2023-04-04T23:25:54.802Z,-2.12
2023-04-04T23:28:41.821Z,-2.06
2023-04-04T23:31:29.105Z,-2.12
2023-04-04T23:34:16.319Z,-2.38
2023-04-04T23:37:03.931Z,-2.42
2023-04-04T23:39:51.183Z,-2.29
2023-04-04T23:42:38.263Z,-2.58
2023-04-04T23:45:26.176Z,-2.75
2023-04-04T23:48:13.237Z,-2.85
2023-04-04T23:51:01.845Z,-2.83
2023-04-04T23:53:48.942Z,-2.63
2023-04-04T23:56:37.155Z,-2.65
2023-04-04T23:59:24.630Z,-2.82
